Time;durP1;ratioP1;P1;durP2;ratioP2;P2;SDS_P1;SDS_P2;PMS_P1;PMS_P2;Temp;Humidity;BMP_temperature;BMP_pressure;BME280_temperature;BME280_humidity;BME280_pressure;Samples;Min_cycle;Max_cycle;Signal;HPM_P1;HPM_P2
2023/10/14 00:01:04;;;;;;;6.95;2.53;;;;;;;19.29;42.18;99180.75;4974696;28;20050;-84
2023/10/14 00:03:33;;;;;;;17.85;2.55;;;;;;;19.24;42.38;99177.72;4943068;28;20032;-85
2023/10/14 00:06:00;;;;;;;5.63;2.90;;;;;;;19.27;42.13;99185.34;4959121;28;20026;-85
2023/10/14 00:08:31;;;;;;;6.40;2.75;;;;;;;19.22;42.28;99173.63;4943061;28;20049;-87
2023/10/14 00:11:07;;;;;;;6.90;2.60;;;;;;;19.22;42.34;99174.44;4975900;28;20057;-85
2023/10/14 00:13:42;;;;;;;4.63;2.40;;;;;;;19.19;42.23;99171.28;4958703;28;20135;-84
2023/10/14 00:16:25;;;;;;;4.85;2.60;;;;;;;19.20;42.41;99181.72;4960979;28;20042;-84
2023/10/14 00:18:51;;;;;;;6.88;2.70;;;;;;;19.18;42.58;99173.09;4961973;28;20133;-85
2023/10/14 00:21:16;;;;;;;7.13;2.60;;;;;;;19.18;42.47;99170.44;4958602;28;20586;-86
2023/10/14 00:23:42;;;;;;;4.53;2.53;;;;;;;19.17;42.51;99166.97;4958627;28;20049;-85
2023/10/14 00:26:17;;;;;;;5.60;2.50;;;;;;;19.18;42.55;99165.16;4942393;28;20038;-85
2023/10/14 00:28:46;;;;;;;7.18;2.50;;;;;;;19.20;42.70;99165.84;4960567;28;20022;-85
2023/10/14 00:31:15;;;;;;;5.70;2.35;;;;;;;19.23;42.59;99164.66;4958781;28;20615;-85
2023/10/14 00:33:41;;;;;;;3.85;2.28;;;;;;;19.21;42.45;99161.34;4958521;28;20092;-84
2023/10/14 00:36:10;;;;;;;6.63;2.53;;;;;;;19.26;42.59;99164.34;4942280;28;20138;-85
2023/10/14 00:38:43;;;;;;;4.82;2.80;;;;;;;19.26;42.56;99162.53;4958714;28;20030;-84
2023/10/14 00:41:09;;;;;;;6.15;2.47;;;;;;;19.29;42.53;99153.44;4959165;28;20026;-84
2023/10/14 00:43:36;;;;;;;4.43;2.35;;;;;;;19.29;42.31;99158.72;4941888;28;20468;-85
2023/10/14 00:46:07;;;;;;;6.70;2.72;;;;;;;19.28;42.38;99147.31;4958179;28;20048;-84
2023/10/14 00:48:34;;;;;;;4.32;2.30;;;;;;;19.32;42.40;99148.66;4974714;28;20030;-86
2023/10/14 00:51:01;;;;;;;5.27;2.63;;;;;;;19.33;42.36;99141.53;4958673;28;20089;-85
2023/10/14 00:53:30;;;;;;;7.13;1.98;;;;;;;19.35;42.41;99142.19;4958393;28;20062;-86
2023/10/14 00:55:56;;;;;;;6.60;2.13;;;;;;;19.35;42.48;99147.47;4974162;28;20182;-85
2023/10/14 00:58:28;;;;;;;6.07;2.38;;;;;;;19.36;42.39;99135.09;4958339;28;20042;-86
2023/10/14 01:01:00;;;;;;;4.28;2.50;;;;;;;19.29;42.42;99124.31;4959132;28;20104;-85
2023/10/14 01:03:26;;;;;;;3.97;2.50;;;;;;;19.32;42.46;99130.13;4959631;28;20402;-85
2023/10/14 01:05:56;;;;;;;3.42;2.13;;;;;;;19.28;42.64;99127.97;4957868;28;20118;-85
2023/10/14 01:08:24;;;;;;;6.30;2.67;;;;;;;19.25;42.62;99125.66;4957927;28;20053;-85
2023/10/14 01:10:50;;;;;;;5.50;2.22;;;;;;;19.19;42.75;99121.81;4957879;28;20022;-85
2023/10/14 01:13:21;;;;;;;7.28;2.97;;;;;;;19.20;42.84;99120.84;4958608;28;20054;-86
2023/10/14 01:15:49;;;;;;;5.65;2.60;;;;;;;19.15;42.93;99116.03;4962401;28;20528;-85
2023/10/14 01:18:14;;;;;;;6.30;2.10;;;;;;;19.13;42.98;99120.69;4994667;28;20034;-86
2023/10/14 01:20:43;;;;;;;4.40;2.35;;;;;;;19.10;43.22;99109.56;4945048;28;20045;-86
2023/10/14 01:23:15;;;;;;;3.78;2.45;;;;;;;19.04;43.24;99110.22;4961199;28;20421;-85
2023/10/14 01:25:47;;;;;;;10.32;2.55;;;;;;;18.99;43.34;99105.41;4962486;28;20038;-84
2023/10/14 01:28:15;;;;;;;5.30;2.53;;;;;;;19.01;43.34;99105.25;4946819;28;20031;-84
2023/10/14 01:30:55;;;;;;;5.47;2.40;;;;;;;18.95;43.63;99098.81;4961855;28;20057;-85
2023/10/14 01:33:25;;;;;;;5.82;2.10;;;;;;;18.91;43.66;99092.16;4962229;28;20026;-85
2023/10/14 01:35:51;;;;;;;5.63;2.40;;;;;;;18.88;43.60;99098.63;4962412;28;20482;-85
2023/10/14 01:38:17;;;;;;;7.22;2.30;;;;;;;18.87;43.73;99096.16;4945966;28;20112;-86
2023/10/14 01:41:04;;;;;;;4.80;2.58;;;;;;;18.85;43.65;99092.81;4945245;28;20478;-85
2023/10/14 01:43:33;;;;;;;5.00;2.30;;;;;;;18.76;43.69;99079.53;4950606;28;20045;-85
2023/10/14 01:46:00;;;;;;;6.00;2.42;;;;;;;18.79;43.80;99094.28;4961893;28;20476;-85
2023/10/14 01:48:30;;;;;;;4.80;2.33;;;;;;;18.75;43.78;99087.63;4961493;28;20065;-86
2023/10/14 01:50:56;;;;;;;5.70;2.40;;;;;;;18.73;43.89;99092.28;4962106;28;20077;-87
2023/10/14 01:53:28;;;;;;;5.38;2.20;;;;;;;18.70;43.97;99092.59;4944914;28;20066;-84
2023/10/14 01:56:00;;;;;;;4.03;2.20;;;;;;;18.69;44.11;99090.91;4944690;28;20093;-84
2023/10/14 01:58:29;;;;;;;5.20;2.35;;;;;;;18.64;44.24;99086.13;4945658;28;20038;-86
2023/10/14 02:01:14;;;;;;;4.68;2.45;;;;;;;18.63;44.08;99090.59;4961153;28;20039;-87
2023/10/14 02:03:46;;;;;;;3.58;2.35;;;;;;;18.56;44.08;99078.97;4978364;28;20039;-85
2023/10/14 02:06:20;;;;;;;4.00;2.15;;;;;;;18.57;44.10;99082.47;4961766;28;20057;-86
2023/10/14 02:08:46;;;;;;;5.00;2.17;;;;;;;18.55;44.06;99082.63;4993325;28;20157;-86
2023/10/14 02:11:12;;;;;;;5.55;2.45;;;;;;;18.49;44.17;99077.16;4944702;28;20038;-85
2023/10/14 02:13:38;;;;;;;11.95;2.83;;;;;;;18.51;44.08;99086.56;4960519;28;20077;-85
2023/10/14 02:16:07;;;;;;;4.70;2.28;;;;;;;18.49;44.15;99093.03;4944486;28;20552;-85
2023/10/14 02:18:37;;;;;;;3.13;2.10;;;;;;;18.48;44.18;99086.06;4961122;28;20027;-84
2023/10/14 02:21:06;;;;;;;7.97;2.60;;;;;;;18.46;44.44;99088.06;4961226;28;20037;-85
2023/10/14 02:23:45;;;;;;;7.57;2.33;;;;;;;18.41;44.35;99088.53;4944814;28;20049;-84
2023/10/14 02:26:16;;;;;;;6.32;2.53;;;;;;;18.40;44.44;99079.75;4962574;28;20137;-83
2023/10/14 02:28:48;;;;;;;5.28;2.33;;;;;;;18.39;44.25;99093.97;4976362;28;20026;-84
2023/10/14 02:31:18;;;;;;;7.80;2.25;;;;;;;18.37;44.45;99098.56;4961641;28;20112;-84
2023/10/14 02:33:47;;;;;;;5.40;2.17;;;;;;;18.32;44.40;99084.19;4946328;28;20387;-84
2023/10/14 02:36:16;;;;;;;4.82;2.40;;;;;;;18.34;44.51;99090.94;4961650;28;20128;-86
2023/10/14 02:38:54;;;;;;;5.55;2.53;;;;;;;18.33;44.47;99091.09;4946007;28;20026;-85
2023/10/14 02:41:26;;;;;;;5.75;2.35;;;;;;;18.32;44.71;99092.13;4963939;28;20497;-87
2023/10/14 02:46:54;;;;;;;6.72;2.45;;;;;;;18.30;44.70;99088.81;4915588;29;20127;-85
2023/10/14 02:49:24;;;;;;;6.50;2.15;;;;;;;18.28;44.69;99083.69;4915689;29;20409;-84
2023/10/14 02:51:52;;;;;;;5.57;2.30;;;;;;;18.27;44.80;99090.75;4885890;29;20044;-85
2023/10/14 02:54:26;;;;;;;4.38;2.05;;;;;;;18.28;44.89;99083.69;4885248;29;20488;-84
2023/10/14 02:56:59;;;;;;;4.25;2.10;;;;;;;18.26;45.02;99083.84;4886916;29;20040;-85
2023/10/14 02:59:38;;;;;;;5.60;2.20;;;;;;;18.25;44.93;99082.16;4884931;29;20055;-84
2023/10/14 03:04:48;;;;;;;2.95;1.98;;;;;;;18.20;45.07;99078.34;4886073;29;20049;-85
2023/10/14 03:07:25;;;;;;;;;;;;;;;18.22;45.12;99081.66;4888047;29;20520;-84
2023/10/14 03:09:52;;;;;;;5.97;2.17;;;;;;;18.16;45.11;99077.84;4915831;29;19915;-85
2023/10/14 03:12:23;;;;;;;4.85;2.20;;;;;;;18.15;45.30;99083.28;4884776;29;20047;-84
2023/10/14 03:14:50;;;;;;;6.70;2.40;;;;;;;18.15;45.22;99076.16;4885380;29;20036;-85
2023/10/14 03:17:38;;;;;;;3.67;2.40;;;;;;;18.13;45.05;99072.03;4884330;29;20069;-84
2023/10/14 03:20:34;;;;;;;5.38;2.38;;;;;;;18.09;45.22;99060.97;4889732;29;20105;-86
2023/10/14 03:22:53;;;;;;;6.32;2.35;;;;;;;18.10;45.30;99067.88;4904644;28;20109;-86
2023/10/14 03:25:23;;;;;;;7.33;2.20;;;;;;;18.11;45.43;99074.84;4961290;28;20042;-85
2023/10/14 03:27:50;;;;;;;4.20;2.00;;;;;;;18.10;45.29;99075.00;4961758;28;20445;-85
2023/10/14 03:30:15;;;;;;;6.50;2.70;;;;;;;18.08;45.38;99070.69;4960967;28;20030;-85
2023/10/14 03:33:01;;;;;;;3.15;2.17;;;;;;;18.08;45.38;99069.88;4958728;28;20049;-85
2023/10/14 03:35:28;;;;;;;4.57;2.15;;;;;;;18.08;45.27;99073.31;4923223;28;20421;-85
2023/10/14 03:37:59;;;;;;;8.68;2.30;;;;;;;18.01;45.37;99063.53;4939997;28;20046;-84
2023/10/14 03:43:14;;;;;;;4.82;2.53;;;;;;;18.04;45.41;99072.00;4944704;28;20105;-83
2023/10/14 03:45:53;;;;;;;6.55;2.50;;;;;;;18.03;45.44;99072.16;4940907;28;20062;-85
2023/10/14 03:48:27;;;;;;;3.92;2.08;;;;;;;18.02;45.60;99070.50;4941154;28;20034;-85
2023/10/14 03:50:52;;;;;;;6.72;2.47;;;;;;;18.00;45.53;99075.13;4941185;28;20034;-87
2023/10/14 03:53:18;;;;;;;6.97;2.38;;;;;;;17.99;45.50;99078.72;4939682;28;20097;-87
2023/10/14 03:55:46;;;;;;;3.78;2.50;;;;;;;17.97;45.48;99067.50;4923357;28;20027;-87
2023/10/14 03:58:12;;;;;;;4.93;2.20;;;;;;;17.95;45.55;99067.66;4953749;28;20061;-86
2023/10/14 04:00:48;;;;;;;5.45;2.15;;;;;;;17.94;45.64;99075.72;4936608;29;20051;-85
2023/10/14 04:03:24;;;;;;;5.07;2.08;;;;;;;17.93;45.89;99071.44;4952090;29;20066;-85
2023/10/14 04:05:52;;;;;;;4.65;2.22;;;;;;;17.89;45.79;99063.81;4937816;29;20414;-84
2023/10/14 04:08:25;;;;;;;4.40;2.30;;;;;;;17.84;45.90;99060.78;4920197;29;20106;-85
2023/10/14 04:11:03;;;;;;;4.20;2.30;;;;;;;17.91;46.03;99071.59;4966533;28;20060;-84
2023/10/14 04:13:34;;;;;;;7.30;2.10;;;;;;;17.90;46.03;99075.22;4997065;28;20038;-84
2023/10/14 04:16:00;;;;;;;5.80;2.47;;;;;;;17.89;45.89;99070.91;4979840;28;20029;-85
2023/10/14 04:18:26;;;;;;;5.68;2.35;;;;;;;17.88;45.96;99066.59;4994953;28;20121;-83
2023/10/14 04:23:41;;;;;;;7.53;2.60;;;;;;;17.87;46.10;99071.03;4982953;28;20124;-73
2023/10/14 04:26:21;;;;;;;3.42;2.22;;;;;;;17.83;46.13;99063.59;4980593;28;20033;-88
2023/10/14 04:28:58;;;;;;;6.65;2.50;;;;;;;17.84;46.13;99073.19;5014485;28;20045;-88
2023/10/14 04:31:39;;;;;;;4.95;2.40;;;;;;;17.86;46.01;99079.13;4996307;28;20342;-88
2023/10/14 04:34:14;;;;;;;9.48;2.28;;;;;;;17.86;45.86;99066.72;4986188;28;20061;-88
2023/10/14 04:37:07;;;;;;;6.20;2.47;;;;;;;17.92;45.58;99064.47;4976253;28;20120;-88
2023/10/14 04:39:33;;;;;;;7.40;2.67;;;;;;;18.11;45.58;99080.13;4983471;28;20061;-87
2023/10/14 04:42:44;;;;;;;6.78;2.67;;;;;;;18.25;44.95;99066.31;4989181;28;20503;-87
2023/10/14 04:44:58;;;;;;;6.93;2.85;;;;;;;18.55;44.58;99080.00;4975399;28;20092;-88
2023/10/14 04:47:35;;;;;;;7.60;2.60;;;;;;;18.83;43.97;99076.25;4978804;28;20042;-88
2023/10/14 04:50:10;;;;;;;7.97;2.60;;;;;;;19.15;43.34;99080.81;4987048;28;20046;-89
2023/10/14 04:52:38;;;;;;;6.70;2.60;;;;;;;19.48;42.65;99076.38;4965744;28;20050;-86
2023/10/14 05:00:42;;;;;;;5.80;2.25;;;;;;;20.62;40.00;99081.56;4983324;28;20065;-87
2023/10/14 05:03:23;;;;;;;8.55;2.35;;;;;;;21.00;39.12;99081.72;4978582;28;20065;-87
2023/10/14 05:06:40;;;;;;;3.58;2.20;;;;;;;21.49;38.15;99091.13;4970906;28;20038;-87
2023/10/14 05:08:55;;;;;;;6.90;2.30;;;;;;;21.95;37.50;99092.88;4975843;28;20509;-88
2023/10/14 05:11:25;;;;;;;4.35;2.20;;;;;;;22.38;36.48;99095.78;4975682;28;20041;-86
2023/10/14 05:14:14;;;;;;;7.00;2.50;;;;;;;22.77;35.81;99092.78;4983260;28;20449;-88
2023/10/14 05:16:58;;;;;;;4.10;2.22;;;;;;;23.27;34.75;99098.22;4980172;28;20169;-88
2023/10/14 05:19:29;;;;;;;7.70;2.83;;;;;;;23.83;33.98;99091.28;4965825;28;20041;-86
2023/10/14 05:22:03;;;;;;;8.57;2.53;;;;;;;24.34;33.27;99083.03;4974587;28;20033;-87
2023/10/14 05:24:29;;;;;;;10.10;2.40;;;;;;;24.84;32.51;99092.69;4984332;28;20050;-79
2023/10/14 05:27:01;;;;;;;9.77;2.40;;;;;;;25.28;32.36;99088.69;4958866;28;20041;-74
2023/10/14 05:29:30;;;;;;;9.43;2.40;;;;;;;25.76;31.32;99095.69;4959859;28;20058;-73
2023/10/14 05:32:15;;;;;;;6.68;2.50;;;;;;;26.08;31.01;99088.69;4954812;28;20130;-72
2023/10/14 05:34:43;;;;;;;8.10;2.35;;;;;;;26.38;30.80;99088.19;4975340;28;20030;-72
2023/10/14 05:37:11;;;;;;;8.10;2.38;;;;;;;26.43;30.74;99098.25;4997827;28;20034;-73
2023/10/14 05:39:39;;;;;;;;;;;;;;;26.67;30.60;99094.06;4978143;28;20049;-74
2023/10/14 05:42:13;;;;;;;9.57;2.45;;;;;;;26.84;30.00;99099.75;4994771;28;19904;-79
2023/10/14 05:44:49;;;;;;;9.43;2.95;;;;;;;26.91;30.71;99095.19;4971427;28;20045;-76
2023/10/14 05:47:15;;;;;;;13.70;2.65;;;;;;;26.98;29.78;99108.53;4973868;28;20019;-71
2023/10/14 05:49:42;;;;;;;19.55;3.08;;;;;;;27.13;29.56;99108.25;4964058;28;20073;-72
2023/10/14 05:52:08;;;;;;;15.20;2.97;;;;;;;27.33;29.52;99095.56;4994255;28;20123;-71
2023/10/14 05:54:34;;;;;;;7.97;3.22;;;;;;;27.55;28.98;99104.06;5001119;28;20030;-72
2023/10/14 05:57:00;;;;;;;13.18;3.22;;;;;;;27.68;28.48;99102.31;4968454;28;20120;-73
2023/10/14 05:59:25;;;;;;;12.73;3.33;;;;;;;27.87;28.05;99097.81;5016404;28;20046;-70
2023/10/14 06:01:51;;;;;;;18.95;3.40;;;;;;;27.99;27.48;99096.06;4984133;28;20046;-73
2023/10/14 06:04:17;;;;;;;19.08;4.35;;;;;;;27.87;27.80;99101.28;4984502;28;20037;-73
2023/10/14 06:06:42;;;;;;;19.20;3.80;;;;;;;27.89;28.31;99099.19;4981300;28;20386;-74
2023/10/14 06:09:09;;;;;;;16.17;4.53;;;;;;;28.06;27.43;99101.34;4979359;28;20405;-73
2023/10/14 06:11:35;;;;;;;11.82;3.90;;;;;;;28.23;27.76;99096.19;4979284;28;20128;-70
2023/10/14 06:14:04;;;;;;;14.85;3.75;;;;;;;28.46;27.41;99093.66;4962792;28;20124;-69
2023/10/14 06:16:31;;;;;;;14.63;4.22;;;;;;;28.56;25.99;99089.63;4980193;28;20072;-68
2023/10/14 06:18:57;;;;;;;17.08;4.05;;;;;;;28.55;26.34;99099.56;4980141;28;20540;-72
2023/10/14 06:21:27;;;;;;;14.38;4.35;;;;;;;28.63;27.06;99103.84;4979852;28;20033;-67
2023/10/14 06:23:54;;;;;;;14.32;3.95;;;;;;;28.81;26.62;99109.19;4976337;28;20030;-70
2023/10/14 06:26:19;;;;;;;12.00;4.15;;;;;;;28.99;26.68;99102.13;4975750;28;20556;-70
2023/10/14 06:28:45;;;;;;;17.75;4.13;;;;;;;29.02;25.55;99107.84;4978584;28;20038;-73
2023/10/14 06:31:12;;;;;;;13.25;4.18;;;;;;;29.08;26.27;99106.09;4957596;28;20088;-69
2023/10/14 06:33:40;;;;;;;33.40;4.72;;;;;;;29.32;25.98;99103.50;4995995;28;20030;-83
2023/10/14 06:36:10;;;;;;;22.02;4.13;;;;;;;30.15;25.89;99104.38;4945765;28;20049;-85
2023/10/14 06:38:37;;;;;;;19.05;4.22;;;;;;;30.94;24.27;99101.13;4963053;28;20026;-82
2023/10/14 06:41:02;;;;;;;17.10;3.73;;;;;;;31.66;23.52;99102.41;4961250;28;20034;-85
2023/10/14 06:43:28;;;;;;;13.57;3.45;;;;;;;32.37;22.63;99106.34;4961835;28;20112;-81
2023/10/14 06:45:54;;;;;;;20.48;3.88;;;;;;;33.08;21.33;99100.13;4967789;28;20528;-81
2023/10/14 06:48:20;;;;;;;17.55;4.07;;;;;;;33.66;21.26;99097.66;4978960;28;20034;-81
2023/10/14 06:50:48;;;;;;;15.23;4.15;;;;;;;34.27;20.06;99099.13;4983781;28;20394;-81
2023/10/14 06:53:18;;;;;;;14.40;3.88;;;;;;;34.78;19.66;99092.03;4967445;28;20052;-80
2023/10/14 06:55:43;;;;;;;10.30;3.85;;;;;;;35.22;18.89;99096.16;4968362;28;20121;-81
2023/10/14 06:58:18;;;;;;;17.98;4.53;;;;;;;35.74;18.72;99091.53;4980402;28;20493;-83
2023/10/14 07:00:44;;;;;;;20.25;4.63;;;;;;;36.39;18.02;99094.34;4980975;28;20042;-81
2023/10/14 07:03:12;;;;;;;18.10;4.85;;;;;;;37.13;17.00;99090.94;4963279;28;20026;-81
2023/10/14 07:05:46;;;;;;;17.13;4.63;;;;;;;37.73;16.61;99085.28;4979890;28;20030;-82
2023/10/14 07:08:12;;;;;;;16.95;4.78;;;;;;;38.42;16.29;99092.41;4996786;28;20037;-79
2023/10/14 07:10:39;;;;;;;20.15;4.07;;;;;;;38.85;15.63;99087.72;4978389;28;20041;-79
2023/10/14 07:13:04;;;;;;;18.88;4.47;;;;;;;39.20;15.35;99082.84;4979122;28;20030;-81
2023/10/14 07:15:31;;;;;;;10.80;3.97;;;;;;;39.52;15.07;99085.84;4962604;28;20413;-84
2023/10/14 07:17:58;;;;;;;13.87;4.00;;;;;;;39.66;14.89;99083.16;4964420;28;20581;-80
2023/10/14 07:20:23;;;;;;;;;;;;;;;39.86;14.57;99087.44;4979506;28;20045;-83
2023/10/14 07:22:49;;;;;;;9.90;3.43;;;;;;;40.01;14.67;99086.34;4979098;28;20003;-82
2023/10/14 07:25:15;;;;;;;10.57;3.45;;;;;;;40.02;14.68;99086.06;4979040;28;20034;-82
2023/10/14 07:27:41;;;;;;;18.92;3.47;;;;;;;40.00;14.67;99093.75;4962089;28;20037;-81
2023/10/14 07:30:16;;;;;;;14.40;3.70;;;;;;;39.91;14.83;99081.88;4963073;28;20394;-82
2023/10/14 07:32:45;;;;;;;9.57;3.35;;;;;;;39.82;14.97;99084.50;4965124;28;20038;-82
2023/10/14 07:35:11;;;;;;;12.25;3.78;;;;;;;39.88;14.81;99090.69;4978934;28;20112;-82
2023/10/14 07:37:48;;;;;;;9.88;3.92;;;;;;;39.79;14.83;99077.72;4963080;28;20037;-81
2023/10/14 07:40:22;;;;;;;;;;;;;;;39.62;14.84;99081.03;4964000;28;20030;-83
2023/10/14 07:42:54;;;;;;;15.02;3.60;;;;;;;39.64;14.87;99080.75;4980309;28;19910;-83
2023/10/14 07:45:33;;;;;;;9.70;3.00;;;;;;;39.55;15.34;99079.81;4995306;28;20512;-86
2023/10/14 07:47:59;;;;;;;13.73;3.70;;;;;;;39.49;15.26;99080.97;4965843;28;20036;-84
2023/10/14 07:50:25;;;;;;;11.68;3.10;;;;;;;39.49;15.22;99076.34;4978744;28;20026;-84
2023/10/14 07:52:54;;;;;;;10.90;2.97;;;;;;;39.44;15.13;99071.78;4978632;28;20038;-82
2023/10/14 07:55:25;;;;;;;7.38;2.95;;;;;;;39.50;15.27;99072.50;4979243;28;20099;-83
2023/10/14 07:57:51;;;;;;;15.63;3.40;;;;;;;39.54;15.06;99067.28;4980406;28;20178;-83
2023/10/14 08:00:17;;;;;;;9.55;2.90;;;;;;;39.25;15.10;99071.00;4962498;28;20160;-83
2023/10/14 08:02:42;;;;;;;10.32;2.75;;;;;;;39.51;14.67;99073.31;4962574;28;20053;-82
2023/10/14 08:05:08;;;;;;;9.23;2.67;;;;;;;39.55;15.11;99068.88;4962513;28;20045;-83
2023/10/14 08:07:40;;;;;;;12.27;2.72;;;;;;;39.62;15.01;99064.66;4962835;28;20026;-83
2023/10/14 08:10:16;;;;;;;11.10;2.70;;;;;;;39.71;14.71;99067.50;4964603;28;20473;-85
2023/10/14 08:12:46;;;;;;;14.38;2.97;;;;;;;39.82;14.63;99072.75;4965352;28;20088;-84
2023/10/14 08:15:13;;;;;;;15.02;3.10;;;;;;;39.81;14.17;99063.75;4978705;28;20793;-83
2023/10/14 08:17:40;;;;;;;17.80;3.47;;;;;;;39.77;15.10;99068.19;4962385;28;20436;-82
2023/10/14 08:20:12;;;;;;;9.45;2.75;;;;;;;39.81;14.58;99066.50;4962094;28;20148;-83
2023/10/14 08:22:44;;;;;;;15.55;3.50;;;;;;;39.90;14.43;99063.84;4964464;28;20076;-82
2023/10/14 08:25:10;;;;;;;12.25;3.50;;;;;;;39.90;14.18;99064.69;4994861;28;20474;-83
2023/10/14 08:27:36;;;;;;;11.43;3.28;;;;;;;39.83;14.29;99055.25;5011974;28;20022;-82
2023/10/14 08:30:10;;;;;;;16.30;3.33;;;;;;;39.69;14.55;99058.78;4978000;28;20861;-83
2023/10/14 08:32:40;;;;;;;6.70;3.90;;;;;;;39.72;14.56;99057.38;4964398;28;20036;-82
2023/10/14 08:35:14;;;;;;;6.47;3.47;;;;;;;39.61;14.79;99040.38;4978864;28;20034;-83
2023/10/14 08:37:47;;;;;;;14.38;3.03;;;;;;;39.49;14.86;99054.50;4962376;28;20036;-83
2023/10/14 08:40:20;;;;;;;6.22;3.20;;;;;;;39.38;15.40;99053.06;4962625;28;20125;-82
2023/10/14 08:42:58;;;;;;;14.15;4.03;;;;;;;39.22;15.20;99039.69;4978791;28;20113;-83
2023/10/14 08:45:26;;;;;;;11.77;3.22;;;;;;;39.13;15.35;99038.75;4978334;28;20081;-83
2023/10/14 08:47:54;;;;;;;6.45;2.92;;;;;;;39.17;15.52;99036.22;4995038;28;20116;-82
2023/10/14 08:50:24;;;;;;;9.50;4.18;;;;;;;39.08;15.76;99041.56;4979006;28;20106;-82
2023/10/14 08:52:51;;;;;;;20.80;5.03;;;;;;;39.15;15.47;99035.72;4978850;28;20018;-82
2023/10/14 08:55:18;;;;;;;19.98;4.07;;;;;;;39.13;15.73;99027.03;4978501;28;20548;-83
2023/10/14 08:57:47;;;;;;;14.05;4.10;;;;;;;39.12;15.16;99036.31;4962621;28;20034;-83
2023/10/14 09:00:20;;;;;;;18.45;3.83;;;;;;;39.13;15.11;99035.22;4962515;28;20053;-83
2023/10/14 09:02:50;;;;;;;12.55;3.55;;;;;;;39.17;15.63;99034.31;4962981;28;20037;-84
2023/10/14 09:05:19;;;;;;;14.60;4.30;;;;;;;39.35;15.49;99034.56;4978800;28;20121;-83
2023/10/14 09:07:45;;;;;;;18.83;3.95;;;;;;;38.90;15.43;99035.81;4994468;28;20029;-83
2023/10/14 09:10:11;;;;;;;9.40;3.47;;;;;;;39.05;15.34;99029.28;4961915;28;20133;-83
2023/10/14 09:12:37;;;;;;;9.65;3.63;;;;;;;39.16;15.02;99026.44;4961781;28;20033;-83
2023/10/14 09:15:03;;;;;;;9.75;3.60;;;;;;;39.21;15.43;99024.41;4962141;28;20034;-84
2023/10/14 09:17:29;;;;;;;9.65;3.63;;;;;;;39.16;15.23;99026.44;4961581;28;20095;-83
2023/10/14 09:19:54;;;;;;;14.52;3.42;;;;;;;38.98;15.00;99017.13;4961108;28;20046;-83
2023/10/14 09:22:25;;;;;;;13.30;3.17;;;;;;;38.54;15.70;99005.53;4961684;28;20472;-83
2023/10/14 09:24:51;;;;;;;7.85;2.90;;;;;;;38.66;15.88;99005.91;4978033;28;20121;-82
2023/10/14 09:27:18;;;;;;;6.27;3.23;;;;;;;38.77;15.67;99005.75;4977897;28;20504;-82
2023/10/14 09:29:43;;;;;;;11.13;3.08;;;;;;;38.64;15.03;98989.03;4977474;28;20339;-83
2023/10/14 09:32:09;;;;;;;15.35;2.97;;;;;;;38.45;15.84;98986.28;4961253;28;20041;-83
2023/10/14 09:34:35;;;;;;;7.25;2.90;;;;;;;38.63;15.81;98984.69;4963130;28;20501;-83
2023/10/14 09:37:10;;;;;;;6.85;2.67;;;;;;;38.63;15.93;98981.94;4981639;28;20036;-83
2023/10/14 09:39:39;;;;;;;9.40;3.15;;;;;;;38.43;15.94;98980.34;5000093;28;20133;-82
2023/10/14 09:42:05;;;;;;;9.18;3.35;;;;;;;38.29;16.01;98979.47;4982601;28;20033;-84
2023/10/14 09:44:31;;;;;;;10.30;2.92;;;;;;;38.32;16.21;98979.66;4965514;28;20038;-84
2023/10/14 09:46:58;;;;;;;8.70;2.80;;;;;;;38.23;16.07;98967.81;4981537;28;20038;-82
2023/10/14 09:49:24;;;;;;;;;;;;;;;38.17;16.42;98968.97;4965690;28;20034;-81
2023/10/14 09:51:51;;;;;;;8.80;3.00;;;;;;;38.20;16.20;98962.94;4997377;28;19921;-84
2023/10/14 09:54:21;;;;;;;8.48;2.60;;;;;;;38.06;16.45;98960.09;4965883;28;20034;-82
2023/10/14 09:56:47;;;;;;;16.17;2.90;;;;;;;37.86;15.58;98946.75;4981846;28;20033;-82
2023/10/14 09:59:13;;;;;;;13.70;2.70;;;;;;;37.57;16.41;98944.91;4981937;28;20030;-84
2023/10/14 10:01:39;;;;;;;8.48;2.95;;;;;;;37.48;16.73;98944.75;4982019;28;20524;-83
2023/10/14 10:04:08;;;;;;;9.10;2.80;;;;;;;37.28;16.25;98929.44;4982029;28;20096;-84
2023/10/14 10:06:46;;;;;;;15.32;3.10;;;;;;;37.27;16.79;98933.25;4965443;28;20044;-82
2023/10/14 10:09:24;;;;;;;7.45;2.90;;;;;;;37.07;16.92;98926.91;4997821;28;20041;-84
2023/10/14 10:11:50;;;;;;;13.82;2.78;;;;;;;36.93;16.97;98923.25;4981868;28;20030;-82
2023/10/14 10:14:24;;;;;;;14.32;3.63;;;;;;;36.75;17.08;98919.31;4982203;28;20026;-83
2023/10/14 10:16:53;;;;;;;11.18;2.85;;;;;;;36.69;16.91;98910.38;4965805;28;20493;-86
2023/10/14 10:19:23;;;;;;;9.55;2.80;;;;;;;36.30;16.98;98918.56;4965398;28;20045;-82
2023/10/14 10:22:13;;;;;;;11.15;2.75;;;;;;;36.18;17.21;98902.56;4965603;28;20061;-83
2023/10/14 10:24:44;;;;;;;11.38;2.67;;;;;;;35.96;16.52;98898.38;4996830;28;20551;-82
2023/10/14 10:27:10;;;;;;;11.75;2.58;;;;;;;35.58;17.33;98889.84;4965758;28;20030;-85
2023/10/14 10:29:50;;;;;;;10.10;2.63;;;;;;;35.67;17.79;98892.78;4980962;28;20026;-82
2023/10/14 10:32:20;;;;;;;9.13;2.67;;;;;;;35.61;18.08;98885.75;4965446;28;20482;-84
2023/10/14 10:35:05;;;;;;;8.65;2.80;;;;;;;35.35;17.91;98883.16;4982605;28;20413;-82
2023/10/14 10:37:34;;;;;;;7.60;2.45;;;;;;;35.37;18.04;98883.69;4996461;28;20493;-84
2023/10/14 10:40:00;;;;;;;10.68;2.55;;;;;;;35.11;17.93;98881.03;4964158;28;20483;-84
2023/10/14 10:42:28;;;;;;;12.93;2.80;;;;;;;34.77;18.07;98876.19;4965160;28;20030;-79
2023/10/14 10:44:54;;;;;;;12.05;2.60;;;;;;;34.72;18.83;98867.25;4979575;28;20493;-82
2023/10/14 10:47:19;;;;;;;8.77;2.47;;;;;;;34.64;18.64;98865.09;4964009;28;20034;-82
2023/10/14 10:49:56;;;;;;;12.88;2.80;;;;;;;34.61;19.47;98855.59;4963894;28;20457;-85
2023/10/14 10:52:24;;;;;;;13.90;2.40;;;;;;;34.46;18.81;98856.41;4980090;28;20046;-83
2023/10/14 10:54:51;;;;;;;10.15;2.80;;;;;;;34.21;18.86;98858.00;4996240;28;20061;-83
2023/10/14 10:57:19;;;;;;;11.95;2.80;;;;;;;34.18;19.05;98849.59;4963731;28;20034;-83
2023/10/14 10:59:46;;;;;;;14.90;2.92;;;;;;;34.09;19.47;98846.59;4980349;28;20029;-83
2023/10/14 11:02:13;;;;;;;15.05;2.80;;;;;;;34.01;18.66;98842.53;4979854;28;20421;-82
2023/10/14 11:04:39;;;;;;;12.55;2.60;;;;;;;33.71;19.79;98833.25;4980363;28;20034;-83
2023/10/14 11:07:09;;;;;;;15.63;2.70;;;;;;;33.51;20.57;98820.47;4980060;28;20038;-81
2023/10/14 11:09:39;;;;;;;13.18;2.58;;;;;;;33.46;20.67;98830.44;4963783;28;20176;-83
2023/10/14 11:12:06;;;;;;;11.27;2.70;;;;;;;33.28;20.21;98812.81;4964881;28;20022;-82
2023/10/14 11:14:34;;;;;;;11.63;2.28;;;;;;;33.23;20.61;98810.09;4980463;28;20018;-83
2023/10/14 11:16:59;;;;;;;8.40;2.38;;;;;;;33.09;20.57;98810.53;4964027;28;20397;-82
2023/10/14 11:19:26;;;;;;;9.23;2.60;;;;;;;33.00;20.59;98807.53;4963357;28;20044;-82
2023/10/14 11:21:52;;;;;;;11.60;2.47;;;;;;;32.88;20.68;98801.50;4963575;28;20029;-82
2023/10/14 11:24:18;;;;;;;14.93;2.70;;;;;;;32.77;21.03;98805.22;4963798;28;20556;-82
2023/10/14 11:26:44;;;;;;;9.98;2.50;;;;;;;32.70;21.05;98796.53;4963305;28;20037;-81
2023/10/14 11:29:11;;;;;;;11.10;2.63;;;;;;;32.54;21.09;98796.38;4963996;28;20052;-83
2023/10/14 11:31:39;;;;;;;7.27;2.50;;;;;;;32.41;21.55;98796.84;5013946;28;20560;-83
2023/10/14 11:34:04;;;;;;;;;;;;;;;32.26;21.54;98797.53;4964282;28;20042;-82
2023/10/14 11:36:33;;;;;;;7.32;2.25;;;;;;;32.14;22.01;98791.50;4979270;28;19916;-85
2023/10/14 11:38:59;;;;;;;9.60;3.20;;;;;;;31.99;21.71;98790.28;4963691;28;20091;-83
2023/10/14 11:41:27;;;;;;;11.30;3.00;;;;;;;31.79;22.12;98787.38;4963241;28;20030;-83
2023/10/14 11:43:53;;;;;;;11.55;2.72;;;;;;;31.61;22.40;98781.25;4979482;28;20161;-82
2023/10/14 11:46:19;;;;;;;9.10;2.85;;;;;;;31.40;22.85;98780.19;4978945;28;20128;-82
2023/10/14 11:48:46;;;;;;;10.32;2.90;;;;;;;31.20;22.80;98765.41;4962616;28;20516;-83
2023/10/14 11:51:11;;;;;;;11.00;2.87;;;;;;;31.10;23.05;98770.66;4978953;28;20705;-82
2023/10/14 11:53:43;;;;;;;8.93;2.60;;;;;;;30.98;22.97;98765.41;4962380;28;20287;-83
2023/10/14 11:56:13;;;;;;;10.40;2.75;;;;;;;30.79;22.99;98753.25;4962820;28;20511;-83
2023/10/14 11:58:40;;;;;;;10.00;2.47;;;;;;;30.57;22.98;98745.97;4979853;28;20041;-82
2023/10/14 12:01:06;;;;;;;11.43;2.95;;;;;;;30.42;23.38;98761.88;4962916;28;20073;-81